sensor_id;sensor_type;location;lat;lon;timestamp;P1;durP1;ratioP1;P2;durP2;ratioP2
19257;SDS011;9763;48.780;9.212;2023-06-24T00:01:03;3.50;;;1.90;;
19257;SDS011;9763;48.780;9.212;2023-06-24T00:04:29;1.90;;;1.70;;
19257;SDS011;9763;48.780;9.212;2023-06-24T00:07:53;2.10;;;1.90;;
19257;SDS011;9763;48.780;9.212;2023-06-24T00:11:19;2.33;;;2.13;;
19257;SDS011;9763;48.780;9.212;2023-06-24T00:14:42;2.30;;;2.00;;
19257;SDS011;9763;48.780;9.212;2023-06-24T00:18:07;2.23;;;1.80;;
19257;SDS011;9763;48.780;9.212;2023-06-24T00:21:32;2.90;;;2.60;;
19257;SDS011;9763;48.780;9.212;2023-06-24T00:24:55;2.27;;;1.93;;
19257;SDS011;9763;48.780;9.212;2023-06-24T00:28:19;3.57;;;2.10;;
19257;SDS011;9763;48.780;9.212;2023-06-24T00:31:43;2.77;;;1.80;;
19257;SDS011;9763;48.780;9.212;2023-06-24T00:35:07;2.10;;;1.90;;
19257;SDS011;9763;48.780;9.212;2023-06-24T00:38:33;2.13;;;1.83;;
19257;SDS011;9763;48.780;9.212;2023-06-24T00:41:57;2.40;;;2.20;;
19257;SDS011;9763;48.780;9.212;2023-06-24T00:45:21;1.90;;;1.70;;
19257;SDS011;9763;48.780;9.212;2023-06-24T00:48:45;1.90;;;1.70;;
19257;SDS011;9763;48.780;9.212;2023-06-24T00:52:08;1.80;;;1.50;;
19257;SDS011;9763;48.780;9.212;2023-06-24T00:55:33;1.80;;;1.70;;
19257;SDS011;9763;48.780;9.212;2023-06-24T00:59:00;1.77;;;1.60;;
19257;SDS011;9763;48.780;9.212;2023-06-24T01:02:26;2.10;;;1.83;;
19257;SDS011;9763;48.780;9.212;2023-06-24T01:05:50;2.63;;;1.60;;
19257;SDS011;9763;48.780;9.212;2023-06-24T01:09:16;2.20;;;1.93;;
19257;SDS011;9763;48.780;9.212;2023-06-24T01:12:41;2.20;;;2.00;;
19257;SDS011;9763;48.780;9.212;2023-06-24T01:16:07;2.00;;;1.80;;
19257;SDS011;9763;48.780;9.212;2023-06-24T01:19:54;3.00;;;2.07;;
19257;SDS011;9763;48.780;9.212;2023-06-24T01:27:39;2.33;;;2.03;;
19257;SDS011;9763;48.780;9.212;2023-06-24T01:31:38;2.30;;;2.10;;
19257;SDS011;9763;48.780;9.212;2023-06-24T01:35:11;3.00;;;2.20;;
19257;SDS011;9763;48.780;9.212;2023-06-24T01:38:43;2.20;;;1.90;;
19257;SDS011;9763;48.780;9.212;2023-06-24T01:42:14;2.40;;;2.20;;
19257;SDS011;9763;48.780;9.212;2023-06-24T01:45:42;2.47;;;2.23;;
19257;SDS011;9763;48.780;9.212;2023-06-24T01:49:13;2.50;;;2.30;;
19257;SDS011;9763;48.780;9.212;2023-06-24T01:52:39;2.60;;;2.07;;
19257;SDS011;9763;48.780;9.212;2023-06-24T01:56:07;1.90;;;1.70;;
19257;SDS011;9763;48.780;9.212;2023-06-24T01:59:35;2.00;;;1.80;;
19257;SDS011;9763;48.780;9.212;2023-06-24T02:03:03;2.60;;;2.37;;
19257;SDS011;9763;48.780;9.212;2023-06-24T02:06:30;2.10;;;1.90;;
19257;SDS011;9763;48.780;9.212;2023-06-24T02:09:56;2.47;;;2.27;;
19257;SDS011;9763;48.780;9.212;2023-06-24T02:13:23;2.20;;;2.00;;
19257;SDS011;9763;48.780;9.212;2023-06-24T02:16:47;2.00;;;1.80;;
19257;SDS011;9763;48.780;9.212;2023-06-24T02:20:19;1.90;;;1.70;;
19257;SDS011;9763;48.780;9.212;2023-06-24T02:23:50;2.13;;;1.87;;
19257;SDS011;9763;48.780;9.212;2023-06-24T02:27:15;2.37;;;1.87;;
19257;SDS011;9763;48.780;9.212;2023-06-24T02:30:40;2.00;;;1.70;;
19257;SDS011;9763;48.780;9.212;2023-06-24T02:34:06;2.37;;;2.17;;
19257;SDS011;9763;48.780;9.212;2023-06-24T02:37:30;2.30;;;2.10;;
19257;SDS011;9763;48.780;9.212;2023-06-24T02:40:55;1.90;;;1.70;;
19257;SDS011;9763;48.780;9.212;2023-06-24T02:44:20;2.00;;;1.80;;
19257;SDS011;9763;48.780;9.212;2023-06-24T02:47:45;2.17;;;1.97;;
19257;SDS011;9763;48.780;9.212;2023-06-24T02:51:11;2.23;;;2.03;;
19257;SDS011;9763;48.780;9.212;2023-06-24T02:54:35;2.03;;;1.83;;
19257;SDS011;9763;48.780;9.212;2023-06-24T02:58:22;3.00;;;2.20;;
19257;SDS011;9763;48.780;9.212;2023-06-24T03:01:57;2.10;;;1.90;;
19257;SDS011;9763;48.780;9.212;2023-06-24T03:05:22;2.53;;;2.33;;
19257;SDS011;9763;48.780;9.212;2023-06-24T03:08:49;1.97;;;1.77;;
19257;SDS011;9763;48.780;9.212;2023-06-24T03:12:16;2.13;;;1.87;;
19257;SDS011;9763;48.780;9.212;2023-06-24T03:15:42;2.30;;;1.87;;
19257;SDS011;9763;48.780;9.212;2023-06-24T03:19:07;2.97;;;2.20;;
19257;SDS011;9763;48.780;9.212;2023-06-24T03:22:31;2.40;;;2.20;;
19257;SDS011;9763;48.780;9.212;2023-06-24T03:25:56;2.00;;;1.77;;
19257;SDS011;9763;48.780;9.212;2023-06-24T03:29:19;2.10;;;1.90;;
19257;SDS011;9763;48.780;9.212;2023-06-24T03:32:55;2.40;;;2.20;;
19257;SDS011;9763;48.780;9.212;2023-06-24T03:36:19;2.17;;;1.97;;
19257;SDS011;9763;48.780;9.212;2023-06-24T03:39:45;2.10;;;1.90;;
19257;SDS011;9763;48.780;9.212;2023-06-24T03:43:08;1.90;;;1.70;;
19257;SDS011;9763;48.780;9.212;2023-06-24T03:46:32;2.27;;;2.07;;
19257;SDS011;9763;48.780;9.212;2023-06-24T03:49:57;2.40;;;2.20;;
19257;SDS011;9763;48.780;9.212;2023-06-24T03:53:21;2.60;;;1.93;;
19257;SDS011;9763;48.780;9.212;2023-06-24T03:56:45;2.10;;;1.90;;
19257;SDS011;9763;48.780;9.212;2023-06-24T04:00:09;2.30;;;2.10;;
19257;SDS011;9763;48.780;9.212;2023-06-24T04:03:39;2.60;;;2.17;;
19257;SDS011;9763;48.780;9.212;2023-06-24T04:07:04;2.17;;;1.97;;
19257;SDS011;9763;48.780;9.212;2023-06-24T04:10:31;2.40;;;2.20;;
19257;SDS011;9763;48.780;9.212;2023-06-24T04:13:54;2.60;;;2.20;;
19257;SDS011;9763;48.780;9.212;2023-06-24T04:17:18;2.70;;;2.20;;
19257;SDS011;9763;48.780;9.212;2023-06-24T04:20:42;2.37;;;2.17;;
19257;SDS011;9763;48.780;9.212;2023-06-24T04:24:08;2.00;;;1.80;;
19257;SDS011;9763;48.780;9.212;2023-06-24T04:27:31;3.03;;;2.33;;
19257;SDS011;9763;48.780;9.212;2023-06-24T04:30:55;2.23;;;2.03;;
19257;SDS011;9763;48.780;9.212;2023-06-24T04:34:20;4.40;;;2.43;;
19257;SDS011;9763;48.780;9.212;2023-06-24T04:37:44;2.53;;;2.33;;
19257;SDS011;9763;48.780;9.212;2023-06-24T04:41:09;2.60;;;2.40;;
19257;SDS011;9763;48.780;9.212;2023-06-24T04:44:32;2.40;;;2.20;;
19257;SDS011;9763;48.780;9.212;2023-06-24T04:47:56;3.40;;;2.50;;
19257;SDS011;9763;48.780;9.212;2023-06-24T04:51:20;2.43;;;2.23;;
19257;SDS011;9763;48.780;9.212;2023-06-24T04:54:44;2.63;;;2.43;;
19257;SDS011;9763;48.780;9.212;2023-06-24T04:58:08;2.53;;;2.33;;
19257;SDS011;9763;48.780;9.212;2023-06-24T05:01:32;2.77;;;2.57;;
19257;SDS011;9763;48.780;9.212;2023-06-24T05:04:55;2.57;;;2.00;;
19257;SDS011;9763;48.780;9.212;2023-06-24T05:08:19;2.80;;;2.60;;
19257;SDS011;9763;48.780;9.212;2023-06-24T05:11:43;2.30;;;2.10;;
19257;SDS011;9763;48.780;9.212;2023-06-24T05:15:08;2.47;;;2.27;;
19257;SDS011;9763;48.780;9.212;2023-06-24T05:18:33;2.40;;;2.20;;
19257;SDS011;9763;48.780;9.212;2023-06-24T05:21:57;2.87;;;2.27;;
19257;SDS011;9763;48.780;9.212;2023-06-24T05:25:23;2.50;;;2.30;;
19257;SDS011;9763;48.780;9.212;2023-06-24T05:28:46;2.33;;;2.13;;
19257;SDS011;9763;48.780;9.212;2023-06-24T05:32:11;2.83;;;2.50;;
19257;SDS011;9763;48.780;9.212;2023-06-24T05:35:35;2.37;;;2.17;;
19257;SDS011;9763;48.780;9.212;2023-06-24T05:39:01;2.73;;;2.53;;
19257;SDS011;9763;48.780;9.212;2023-06-24T05:42:27;2.63;;;2.10;;
19257;SDS011;9763;48.780;9.212;2023-06-24T05:45:50;3.13;;;2.20;;
19257;SDS011;9763;48.780;9.212;2023-06-24T05:49:15;2.23;;;2.03;;
19257;SDS011;9763;48.780;9.212;2023-06-24T05:52:39;2.20;;;2.00;;
19257;SDS011;9763;48.780;9.212;2023-06-24T05:56:02;2.70;;;2.40;;
19257;SDS011;9763;48.780;9.212;2023-06-24T05:59:26;2.90;;;2.70;;
19257;SDS011;9763;48.780;9.212;2023-06-24T06:02:49;2.87;;;2.67;;
19257;SDS011;9763;48.780;9.212;2023-06-24T06:06:15;2.73;;;2.40;;
19257;SDS011;9763;48.780;9.212;2023-06-24T06:09:38;2.50;;;2.30;;
19257;SDS011;9763;48.780;9.212;2023-06-24T06:13:02;2.57;;;2.10;;
19257;SDS011;9763;48.780;9.212;2023-06-24T06:16:25;4.93;;;2.27;;
19257;SDS011;9763;48.780;9.212;2023-06-24T06:19:50;2.27;;;2.00;;
19257;SDS011;9763;48.780;9.212;2023-06-24T06:23:15;2.63;;;2.17;;
19257;SDS011;9763;48.780;9.212;2023-06-24T06:26:41;2.50;;;2.30;;
19257;SDS011;9763;48.780;9.212;2023-06-24T06:30:06;2.40;;;2.20;;
19257;SDS011;9763;48.780;9.212;2023-06-24T06:33:31;2.00;;;1.80;;
19257;SDS011;9763;48.780;9.212;2023-06-24T06:36:54;2.20;;;1.80;;
19257;SDS011;9763;48.780;9.212;2023-06-24T06:40:19;2.70;;;1.67;;
19257;SDS011;9763;48.780;9.212;2023-06-24T06:43:44;1.90;;;1.70;;
19257;SDS011;9763;48.780;9.212;2023-06-24T06:47:07;2.07;;;1.83;;
19257;SDS011;9763;48.780;9.212;2023-06-24T06:50:31;2.00;;;1.80;;
19257;SDS011;9763;48.780;9.212;2023-06-24T06:53:54;2.27;;;1.83;;
19257;SDS011;9763;48.780;9.212;2023-06-24T06:57:19;2.27;;;2.07;;
19257;SDS011;9763;48.780;9.212;2023-06-24T07:00:43;2.00;;;1.60;;
19257;SDS011;9763;48.780;9.212;2023-06-24T07:04:08;1.90;;;1.70;;
19257;SDS011;9763;48.780;9.212;2023-06-24T07:07:31;2.03;;;1.70;;
19257;SDS011;9763;48.780;9.212;2023-06-24T07:10:55;1.83;;;1.63;;
19257;SDS011;9763;48.780;9.212;2023-06-24T07:14:20;1.90;;;1.73;;
19257;SDS011;9763;48.780;9.212;2023-06-24T07:17:44;1.70;;;1.50;;
19257;SDS011;9763;48.780;9.212;2023-06-24T07:21:07;2.10;;;1.90;;
19257;SDS011;9763;48.780;9.212;2023-06-24T07:24:31;1.70;;;1.60;;
19257;SDS011;9763;48.780;9.212;2023-06-24T07:27:54;1.80;;;1.60;;
19257;SDS011;9763;48.780;9.212;2023-06-24T07:31:19;2.17;;;1.70;;
19257;SDS011;9763;48.780;9.212;2023-06-24T07:34:43;1.50;;;1.40;;
19257;SDS011;9763;48.780;9.212;2023-06-24T07:38:07;1.90;;;1.80;;
19257;SDS011;9763;48.780;9.212;2023-06-24T07:41:30;1.70;;;1.60;;
19257;SDS011;9763;48.780;9.212;2023-06-24T07:44:55;1.67;;;1.57;;
19257;SDS011;9763;48.780;9.212;2023-06-24T07:48:20;1.87;;;1.77;;
19257;SDS011;9763;48.780;9.212;2023-06-24T07:51:44;2.40;;;2.20;;
19257;SDS011;9763;48.780;9.212;2023-06-24T07:55:07;1.80;;;1.67;;
19257;SDS011;9763;48.780;9.212;2023-06-24T07:58:33;1.80;;;1.70;;
19257;SDS011;9763;48.780;9.212;2023-06-24T08:01:59;1.90;;;1.70;;
19257;SDS011;9763;48.780;9.212;2023-06-24T08:05:24;1.97;;;1.80;;
19257;SDS011;9763;48.780;9.212;2023-06-24T08:08:48;2.00;;;1.80;;
19257;SDS011;9763;48.780;9.212;2023-06-24T08:12:12;1.73;;;1.60;;
19257;SDS011;9763;48.780;9.212;2023-06-24T08:15:35;1.50;;;1.30;;
19257;SDS011;9763;48.780;9.212;2023-06-24T08:19:03;2.20;;;2.00;;
19257;SDS011;9763;48.780;9.212;2023-06-24T08:22:28;2.10;;;1.70;;
19257;SDS011;9763;48.780;9.212;2023-06-24T08:25:51;1.60;;;1.47;;
19257;SDS011;9763;48.780;9.212;2023-06-24T08:33:37;2.30;;;1.90;;
19257;SDS011;9763;48.780;9.212;2023-06-24T08:37:00;2.37;;;1.53;;
19257;SDS011;9763;48.780;9.212;2023-06-24T08:40:26;1.70;;;1.60;;
19257;SDS011;9763;48.780;9.212;2023-06-24T08:43:52;1.90;;;1.40;;
19257;SDS011;9763;48.780;9.212;2023-06-24T08:47:16;2.70;;;2.00;;
19257;SDS011;9763;48.780;9.212;2023-06-24T08:51:34;5.30;;;1.70;;
19257;SDS011;9763;48.780;9.212;2023-06-24T08:55:04;1.90;;;1.80;;
19257;SDS011;9763;48.780;9.212;2023-06-24T08:58:36;3.03;;;1.60;;
19257;SDS011;9763;48.780;9.212;2023-06-24T09:02:01;1.90;;;1.70;;
19257;SDS011;9763;48.780;9.212;2023-06-24T09:05:25;1.70;;;1.50;;
19257;SDS011;9763;48.780;9.212;2023-06-24T09:08:54;2.20;;;1.30;;
19257;SDS011;9763;48.780;9.212;2023-06-24T09:12:18;1.80;;;1.40;;
19257;SDS011;9763;48.780;9.212;2023-06-24T09:15:43;1.70;;;1.60;;
19257;SDS011;9763;48.780;9.212;2023-06-24T09:19:07;1.70;;;1.50;;
19257;SDS011;9763;48.780;9.212;2023-06-24T09:22:30;1.70;;;1.60;;
19257;SDS011;9763;48.780;9.212;2023-06-24T09:25:57;1.87;;;1.50;;
19257;SDS011;9763;48.780;9.212;2023-06-24T09:29:22;1.60;;;1.50;;
19257;SDS011;9763;48.780;9.212;2023-06-24T09:32:52;1.53;;;1.40;;
19257;SDS011;9763;48.780;9.212;2023-06-24T09:36:17;2.03;;;1.60;;
19257;SDS011;9763;48.780;9.212;2023-06-24T09:39:41;1.90;;;1.43;;
19257;SDS011;9763;48.780;9.212;2023-06-24T09:43:07;1.77;;;1.60;;
19257;SDS011;9763;48.780;9.212;2023-06-24T09:46:30;1.60;;;1.50;;
19257;SDS011;9763;48.780;9.212;2023-06-24T09:49:58;2.20;;;1.70;;
19257;SDS011;9763;48.780;9.212;2023-06-24T09:53:24;1.67;;;1.57;;
19257;SDS011;9763;48.780;9.212;2023-06-24T09:56:49;2.00;;;1.60;;
19257;SDS011;9763;48.780;9.212;2023-06-24T10:00:15;2.10;;;1.60;;
19257;SDS011;9763;48.780;9.212;2023-06-24T10:03:42;1.50;;;1.33;;
19257;SDS011;9763;48.780;9.212;2023-06-24T10:07:08;1.90;;;1.73;;
19257;SDS011;9763;48.780;9.212;2023-06-24T10:10:33;1.83;;;1.70;;
19257;SDS011;9763;48.780;9.212;2023-06-24T10:13:57;2.40;;;2.20;;
19257;SDS011;9763;48.780;9.212;2023-06-24T10:17:21;2.23;;;1.73;;
19257;SDS011;9763;48.780;9.212;2023-06-24T10:20:47;2.00;;;1.80;;
19257;SDS011;9763;48.780;9.212;2023-06-24T10:24:12;2.20;;;1.87;;
19257;SDS011;9763;48.780;9.212;2023-06-24T10:27:39;2.20;;;1.43;;
19257;SDS011;9763;48.780;9.212;2023-06-24T10:31:04;1.73;;;1.60;;
19257;SDS011;9763;48.780;9.212;2023-06-24T10:34:31;2.37;;;1.60;;
19257;SDS011;9763;48.780;9.212;2023-06-24T10:38:06;1.80;;;1.50;;
19257;SDS011;9763;48.780;9.212;2023-06-24T10:41:35;1.47;;;1.20;;
19257;SDS011;9763;48.780;9.212;2023-06-24T10:44:59;6.90;;;1.57;;
19257;SDS011;9763;48.780;9.212;2023-06-24T10:48:24;3.20;;;1.20;;
19257;SDS011;9763;48.780;9.212;2023-06-24T10:51:48;1.73;;;1.57;;
19257;SDS011;9763;48.780;9.212;2023-06-24T10:55:13;1.70;;;1.50;;
19257;SDS011;9763;48.780;9.212;2023-06-24T10:58:40;1.93;;;1.73;;
19257;SDS011;9763;48.780;9.212;2023-06-24T11:02:07;1.90;;;1.70;;
19257;SDS011;9763;48.780;9.212;2023-06-24T11:05:32;2.00;;;1.70;;
19257;SDS011;9763;48.780;9.212;2023-06-24T11:09:01;1.50;;;1.30;;
19257;SDS011;9763;48.780;9.212;2023-06-24T11:12:25;1.50;;;1.30;;
19257;SDS011;9763;48.780;9.212;2023-06-24T11:15:52;1.50;;;1.37;;
19257;SDS011;9763;48.780;9.212;2023-06-24T11:19:22;1.60;;;1.40;;
19257;SDS011;9763;48.780;9.212;2023-06-24T11:22:46;2.10;;;1.60;;
19257;SDS011;9763;48.780;9.212;2023-06-24T11:26:10;1.90;;;1.70;;
19257;SDS011;9763;48.780;9.212;2023-06-24T11:29:35;1.70;;;1.53;;
19257;SDS011;9763;48.780;9.212;2023-06-24T11:33:00;1.70;;;1.60;;
19257;SDS011;9763;48.780;9.212;2023-06-24T11:36:24;2.57;;;1.50;;
19257;SDS011;9763;48.780;9.212;2023-06-24T11:40:00;1.50;;;1.40;;
19257;SDS011;9763;48.780;9.212;2023-06-24T11:43:26;1.80;;;1.60;;
19257;SDS011;9763;48.780;9.212;2023-06-24T11:46:51;1.57;;;1.47;;
19257;SDS011;9763;48.780;9.212;2023-06-24T11:50:15;1.80;;;1.57;;
19257;SDS011;9763;48.780;9.212;2023-06-24T11:53:40;1.77;;;1.47;;
19257;SDS011;9763;48.780;9.212;2023-06-24T11:57:05;1.47;;;1.37;;
19257;SDS011;9763;48.780;9.212;2023-06-24T12:00:29;1.60;;;1.40;;
19257;SDS011;9763;48.780;9.212;2023-06-24T12:03:54;1.60;;;1.40;;
19257;SDS011;9763;48.780;9.212;2023-06-24T12:07:19;1.60;;;1.30;;
19257;SDS011;9763;48.780;9.212;2023-06-24T12:10:44;2.27;;;1.60;;
19257;SDS011;9763;48.780;9.212;2023-06-24T12:14:08;1.80;;;1.60;;
19257;SDS011;9763;48.780;9.212;2023-06-24T12:17:32;1.73;;;1.60;;
19257;SDS011;9763;48.780;9.212;2023-06-24T12:20:55;1.70;;;1.60;;
19257;SDS011;9763;48.780;9.212;2023-06-24T12:24:20;1.60;;;1.43;;
19257;SDS011;9763;48.780;9.212;2023-06-24T12:27:44;3.40;;;1.90;;
19257;SDS011;9763;48.780;9.212;2023-06-24T12:31:08;1.70;;;1.47;;
19257;SDS011;9763;48.780;9.212;2023-06-24T12:34:32;1.83;;;1.60;;
19257;SDS011;9763;48.780;9.212;2023-06-24T12:37:56;2.80;;;1.67;;
19257;SDS011;9763;48.780;9.212;2023-06-24T12:41:21;2.00;;;1.80;;
19257;SDS011;9763;48.780;9.212;2023-06-24T12:44:44;2.00;;;1.67;;
19257;SDS011;9763;48.780;9.212;2023-06-24T12:48:08;2.57;;;1.60;;
19257;SDS011;9763;48.780;9.212;2023-06-24T12:51:32;1.70;;;1.60;;
19257;SDS011;9763;48.780;9.212;2023-06-24T12:54:55;1.60;;;1.40;;
19257;SDS011;9763;48.780;9.212;2023-06-24T12:58:22;1.60;;;1.50;;
19257;SDS011;9763;48.780;9.212;2023-06-24T13:01:47;1.70;;;1.50;;
19257;SDS011;9763;48.780;9.212;2023-06-24T13:05:11;1.80;;;1.50;;
19257;SDS011;9763;48.780;9.212;2023-06-24T13:08:34;1.53;;;1.43;;
19257;SDS011;9763;48.780;9.212;2023-06-24T13:11:58;1.70;;;1.30;;
19257;SDS011;9763;48.780;9.212;2023-06-24T13:15:23;1.80;;;1.53;;
19257;SDS011;9763;48.780;9.212;2023-06-24T13:18:49;1.87;;;1.33;;
19257;SDS011;9763;48.780;9.212;2023-06-24T13:22:12;2.07;;;1.80;;
19257;SDS011;9763;48.780;9.212;2023-06-24T13:25:36;1.40;;;1.30;;
19257;SDS011;9763;48.780;9.212;2023-06-24T13:29:00;2.00;;;1.30;;
19257;SDS011;9763;48.780;9.212;2023-06-24T13:32:25;1.60;;;1.40;;
19257;SDS011;9763;48.780;9.212;2023-06-24T13:35:49;1.80;;;1.57;;
19257;SDS011;9763;48.780;9.212;2023-06-24T13:39:14;1.87;;;1.50;;
19257;SDS011;9763;48.780;9.212;2023-06-24T13:42:38;5.80;;;2.00;;
19257;SDS011;9763;48.780;9.212;2023-06-24T13:46:02;1.97;;;1.60;;
19257;SDS011;9763;48.780;9.212;2023-06-24T13:49:27;5.57;;;1.70;;
19257;SDS011;9763;48.780;9.212;2023-06-24T13:52:51;2.10;;;1.90;;
19257;SDS011;9763;48.780;9.212;2023-06-24T13:56:15;2.63;;;2.43;;
19257;SDS011;9763;48.780;9.212;2023-06-24T13:59:38;2.07;;;1.87;;
19257;SDS011;9763;48.780;9.212;2023-06-24T14:03:02;3.10;;;1.90;;
19257;SDS011;9763;48.780;9.212;2023-06-24T14:06:27;2.23;;;2.03;;
19257;SDS011;9763;48.780;9.212;2023-06-24T14:09:51;1.80;;;1.70;;
19257;SDS011;9763;48.780;9.212;2023-06-24T14:13:15;1.80;;;1.40;;
19257;SDS011;9763;48.780;9.212;2023-06-24T14:16:38;2.23;;;1.87;;
19257;SDS011;9763;48.780;9.212;2023-06-24T14:20:02;2.87;;;1.60;;
19257;SDS011;9763;48.780;9.212;2023-06-24T14:23:28;1.80;;;1.70;;
19257;SDS011;9763;48.780;9.212;2023-06-24T14:26:53;2.00;;;1.77;;
19257;SDS011;9763;48.780;9.212;2023-06-24T14:30:17;1.70;;;1.60;;
19257;SDS011;9763;48.780;9.212;2023-06-24T14:33:40;2.03;;;1.83;;
19257;SDS011;9763;48.780;9.212;2023-06-24T14:37:04;2.17;;;1.97;;
19257;SDS011;9763;48.780;9.212;2023-06-24T14:40:29;2.30;;;2.00;;
19257;SDS011;9763;48.780;9.212;2023-06-24T14:43:54;1.77;;;1.67;;
19257;SDS011;9763;48.780;9.212;2023-06-24T14:47:17;1.87;;;1.67;;
19257;SDS011;9763;48.780;9.212;2023-06-24T14:50:41;2.10;;;1.80;;
19257;SDS011;9763;48.780;9.212;2023-06-24T14:54:05;1.70;;;1.50;;
19257;SDS011;9763;48.780;9.212;2023-06-24T14:57:30;2.07;;;1.73;;
19257;SDS011;9763;48.780;9.212;2023-06-24T15:00:53;2.20;;;1.50;;
19257;SDS011;9763;48.780;9.212;2023-06-24T15:04:17;2.17;;;1.60;;
19257;SDS011;9763;48.780;9.212;2023-06-24T15:07:43;2.10;;;1.70;;
19257;SDS011;9763;48.780;9.212;2023-06-24T15:11:07;2.27;;;2.07;;
19257;SDS011;9763;48.780;9.212;2023-06-24T15:14:32;2.73;;;1.70;;
19257;SDS011;9763;48.780;9.212;2023-06-24T15:17:56;1.63;;;1.50;;
19257;SDS011;9763;48.780;9.212;2023-06-24T15:21:19;2.03;;;1.80;;
19257;SDS011;9763;48.780;9.212;2023-06-24T15:24:58;2.40;;;1.83;;
19257;SDS011;9763;48.780;9.212;2023-06-24T15:28:21;1.77;;;1.53;;
19257;SDS011;9763;48.780;9.212;2023-06-24T15:31:46;2.00;;;1.80;;
19257;SDS011;9763;48.780;9.212;2023-06-24T15:35:10;1.70;;;1.50;;
19257;SDS011;9763;48.780;9.212;2023-06-24T15:38:33;1.80;;;1.60;;
19257;SDS011;9763;48.780;9.212;2023-06-24T15:41:57;1.83;;;1.60;;
19257;SDS011;9763;48.780;9.212;2023-06-24T15:45:20;1.60;;;1.40;;
19257;SDS011;9763;48.780;9.212;2023-06-24T15:48:45;1.63;;;1.40;;
19257;SDS011;9763;48.780;9.212;2023-06-24T15:52:09;1.60;;;1.50;;
19257;SDS011;9763;48.780;9.212;2023-06-24T15:55:32;1.90;;;1.70;;
19257;SDS011;9763;48.780;9.212;2023-06-24T15:58:56;2.13;;;1.93;;
19257;SDS011;9763;48.780;9.212;2023-06-24T16:02:20;2.20;;;2.00;;
19257;SDS011;9763;48.780;9.212;2023-06-24T16:05:45;1.93;;;1.67;;
19257;SDS011;9763;48.780;9.212;2023-06-24T16:09:10;2.00;;;1.80;;
19257;SDS011;9763;48.780;9.212;2023-06-24T16:12:34;1.70;;;1.50;;
19257;SDS011;9763;48.780;9.212;2023-06-24T16:15:58;1.97;;;1.77;;
19257;SDS011;9763;48.780;9.212;2023-06-24T16:19:21;1.90;;;1.70;;
19257;SDS011;9763;48.780;9.212;2023-06-24T16:22:46;1.70;;;1.60;;
19257;SDS011;9763;48.780;9.212;2023-06-24T16:26:10;1.73;;;1.50;;
19257;SDS011;9763;48.780;9.212;2023-06-24T16:29:33;1.90;;;1.50;;
19257;SDS011;9763;48.780;9.212;2023-06-24T16:32:57;2.47;;;1.70;;
19257;SDS011;9763;48.780;9.212;2023-06-24T16:36:21;1.73;;;1.60;;
19257;SDS011;9763;48.780;9.212;2023-06-24T16:39:46;2.00;;;1.57;;
19257;SDS011;9763;48.780;9.212;2023-06-24T16:43:10;2.03;;;1.77;;
19257;SDS011;9763;48.780;9.212;2023-06-24T16:46:33;1.67;;;1.53;;
19257;SDS011;9763;48.780;9.212;2023-06-24T16:49:57;1.90;;;1.50;;
19257;SDS011;9763;48.780;9.212;2023-06-24T16:53:23;2.00;;;1.60;;
19257;SDS011;9763;48.780;9.212;2023-06-24T16:56:48;1.90;;;1.60;;
19257;SDS011;9763;48.780;9.212;2023-06-24T17:00:12;1.90;;;1.53;;
19257;SDS011;9763;48.780;9.212;2023-06-24T17:03:36;1.90;;;1.43;;
19257;SDS011;9763;48.780;9.212;2023-06-24T17:07:00;2.30;;;1.80;;
19257;SDS011;9763;48.780;9.212;2023-06-24T17:10:24;1.70;;;1.50;;
19257;SDS011;9763;48.780;9.212;2023-06-24T17:13:49;1.90;;;1.70;;
19257;SDS011;9763;48.780;9.212;2023-06-24T17:17:13;2.03;;;1.50;;
19257;SDS011;9763;48.780;9.212;2023-06-24T17:20:37;2.80;;;2.20;;
19257;SDS011;9763;48.780;9.212;2023-06-24T17:24:01;1.80;;;1.60;;
19257;SDS011;9763;48.780;9.212;2023-06-24T17:27:25;2.37;;;1.67;;
19257;SDS011;9763;48.780;9.212;2023-06-24T17:30:50;1.80;;;1.60;;
19257;SDS011;9763;48.780;9.212;2023-06-24T17:34:13;2.00;;;1.60;;
19257;SDS011;9763;48.780;9.212;2023-06-24T17:37:37;1.80;;;1.60;;
19257;SDS011;9763;48.780;9.212;2023-06-24T17:41:01;2.10;;;1.90;;
19257;SDS011;9763;48.780;9.212;2023-06-24T17:44:24;1.97;;;1.77;;
19257;SDS011;9763;48.780;9.212;2023-06-24T17:47:49;1.67;;;1.50;;
19257;SDS011;9763;48.780;9.212;2023-06-24T17:51:14;1.60;;;1.50;;
19257;SDS011;9763;48.780;9.212;2023-06-24T17:54:37;2.00;;;1.60;;
19257;SDS011;9763;48.780;9.212;2023-06-24T17:58:01;1.90;;;1.70;;
19257;SDS011;9763;48.780;9.212;2023-06-24T18:01:25;1.90;;;1.70;;
19257;SDS011;9763;48.780;9.212;2023-06-24T18:04:52;1.67;;;1.47;;
19257;SDS011;9763;48.780;9.212;2023-06-24T18:08:16;1.80;;;1.60;;
19257;SDS011;9763;48.780;9.212;2023-06-24T18:11:41;1.80;;;1.60;;
19257;SDS011;9763;48.780;9.212;2023-06-24T18:15:05;2.00;;;1.70;;
19257;SDS011;9763;48.780;9.212;2023-06-24T18:18:30;1.60;;;1.50;;
19257;SDS011;9763;48.780;9.212;2023-06-24T18:21:56;1.80;;;1.47;;
19257;SDS011;9763;48.780;9.212;2023-06-24T18:25:20;2.17;;;1.97;;
19257;SDS011;9763;48.780;9.212;2023-06-24T18:28:44;1.90;;;1.70;;
19257;SDS011;9763;48.780;9.212;2023-06-24T18:32:07;1.60;;;1.40;;
19257;SDS011;9763;48.780;9.212;2023-06-24T18:35:31;1.97;;;1.77;;
19257;SDS011;9763;48.780;9.212;2023-06-24T18:38:57;1.97;;;1.63;;
19257;SDS011;9763;48.780;9.212;2023-06-24T18:42:21;2.13;;;1.57;;
19257;SDS011;9763;48.780;9.212;2023-06-24T18:45:45;1.90;;;1.70;;
19257;SDS011;9763;48.780;9.212;2023-06-24T18:49:09;2.10;;;1.87;;
19257;SDS011;9763;48.780;9.212;2023-06-24T18:52:32;2.30;;;1.80;;
19257;SDS011;9763;48.780;9.212;2023-06-24T18:55:58;1.80;;;1.70;;
19257;SDS011;9763;48.780;9.212;2023-06-24T18:59:21;2.00;;;1.80;;
19257;SDS011;9763;48.780;9.212;2023-06-24T19:02:45;2.00;;;1.80;;
19257;SDS011;9763;48.780;9.212;2023-06-24T19:06:09;3.03;;;2.13;;
19257;SDS011;9763;48.780;9.212;2023-06-24T19:09:32;2.07;;;1.77;;
19257;SDS011;9763;48.780;9.212;2023-06-24T19:12:57;2.10;;;1.73;;
19257;SDS011;9763;48.780;9.212;2023-06-24T19:16:21;2.23;;;2.03;;
19257;SDS011;9763;48.780;9.212;2023-06-24T19:19:45;2.30;;;2.10;;
19257;SDS011;9763;48.780;9.212;2023-06-24T19:23:09;2.13;;;1.50;;
19257;SDS011;9763;48.780;9.212;2023-06-24T19:26:33;2.27;;;1.73;;
19257;SDS011;9763;48.780;9.212;2023-06-24T19:29:58;3.00;;;1.83;;
19257;SDS011;9763;48.780;9.212;2023-06-24T19:33:27;2.63;;;1.90;;
19257;SDS011;9763;48.780;9.212;2023-06-24T19:36:51;1.70;;;1.60;;
19257;SDS011;9763;48.780;9.212;2023-06-24T19:40:16;1.90;;;1.70;;
19257;SDS011;9763;48.780;9.212;2023-06-24T19:43:46;1.80;;;1.70;;
19257;SDS011;9763;48.780;9.212;2023-06-24T19:47:13;2.20;;;1.83;;
19257;SDS011;9763;48.780;9.212;2023-06-24T19:50:38;2.03;;;1.70;;
19257;SDS011;9763;48.780;9.212;2023-06-24T19:54:02;2.20;;;1.90;;
19257;SDS011;9763;48.780;9.212;2023-06-24T19:57:25;2.40;;;1.83;;
19257;SDS011;9763;48.780;9.212;2023-06-24T20:00:49;2.20;;;2.00;;
19257;SDS011;9763;48.780;9.212;2023-06-24T20:04:14;2.10;;;1.60;;
19257;SDS011;9763;48.780;9.212;2023-06-24T20:07:37;1.83;;;1.63;;
19257;SDS011;9763;48.780;9.212;2023-06-24T20:11:01;3.00;;;1.93;;
19257;SDS011;9763;48.780;9.212;2023-06-24T20:14:25;2.40;;;2.20;;
19257;SDS011;9763;48.780;9.212;2023-06-24T20:17:48;2.93;;;2.67;;
19257;SDS011;9763;48.780;9.212;2023-06-24T20:21:13;3.50;;;3.20;;
19257;SDS011;9763;48.780;9.212;2023-06-24T20:24:37;3.07;;;2.77;;
19257;SDS011;9763;48.780;9.212;2023-06-24T20:28:00;5.43;;;2.50;;
19257;SDS011;9763;48.780;9.212;2023-06-24T20:31:26;2.47;;;2.27;;
19257;SDS011;9763;48.780;9.212;2023-06-24T20:34:50;2.67;;;2.00;;
19257;SDS011;9763;48.780;9.212;2023-06-24T20:38:15;2.50;;;2.30;;
19257;SDS011;9763;48.780;9.212;2023-06-24T20:41:38;2.23;;;1.80;;
19257;SDS011;9763;48.780;9.212;2023-06-24T20:45:02;2.50;;;1.97;;
19257;SDS011;9763;48.780;9.212;2023-06-24T20:48:26;2.60;;;2.20;;
19257;SDS011;9763;48.780;9.212;2023-06-24T20:51:50;2.60;;;2.40;;
19257;SDS011;9763;48.780;9.212;2023-06-24T20:55:15;2.53;;;2.33;;
19257;SDS011;9763;48.780;9.212;2023-06-24T20:58:40;4.00;;;2.10;;
19257;SDS011;9763;48.780;9.212;2023-06-24T21:02:04;2.47;;;1.87;;